Aviation Digital Data Service (ADDS)

Output produced by METARs form (1235 UTC 26 March 2019)
found at http://www.aviationweather.gov/metar/data/
 
HDAM 261200Z 08010KT 9999 SCT023 31/24 Q1011
HDAM 261100Z 2612/2712 08012KT 9999 SCT023 
     BECMG 2615/2618 VRB05KT FEW020 
     BECMG 2700/2706 10010KT SCT020